sensor_id;sensor_type;location;lat;lon;timestamp;P1;durP1;ratioP1;P2;durP2;ratioP2
54271;SDS011;40184;53.362;5.216;2023-05-07T00:00:00;23.63;;;16.88;;
54271;SDS011;40184;53.362;5.216;2023-05-07T00:02:26;19.58;;;16.88;;
54271;SDS011;40184;53.362;5.216;2023-05-07T00:04:52;22.30;;;16.40;;
54271;SDS011;40184;53.362;5.216;2023-05-07T00:07:18;20.65;;;16.65;;
54271;SDS011;40184;53.362;5.216;2023-05-07T00:09:43;23.60;;;18.02;;
54271;SDS011;40184;53.362;5.216;2023-05-07T00:12:09;21.17;;;17.90;;
54271;SDS011;40184;53.362;5.216;2023-05-07T00:14:35;22.25;;;17.48;;
54271;SDS011;40184;53.362;5.216;2023-05-07T00:17:01;20.17;;;17.50;;
54271;SDS011;40184;53.362;5.216;2023-05-07T00:19:27;25.38;;;18.23;;
54271;SDS011;40184;53.362;5.216;2023-05-07T00:21:52;21.98;;;17.52;;
54271;SDS011;40184;53.362;5.216;2023-05-07T00:24:21;25.40;;;18.27;;
54271;SDS011;40184;53.362;5.216;2023-05-07T00:26:47;26.23;;;19.20;;
54271;SDS011;40184;53.362;5.216;2023-05-07T00:29:13;23.92;;;18.75;;
54271;SDS011;40184;53.362;5.216;2023-05-07T00:31:38;21.85;;;17.50;;
54271;SDS011;40184;53.362;5.216;2023-05-07T00:34:04;21.02;;;16.60;;
54271;SDS011;40184;53.362;5.216;2023-05-07T00:36:30;19.88;;;17.17;;
54271;SDS011;40184;53.362;5.216;2023-05-07T00:38:56;20.67;;;17.42;;
54271;SDS011;40184;53.362;5.216;2023-05-07T00:41:25;23.83;;;17.70;;
54271;SDS011;40184;53.362;5.216;2023-05-07T00:43:50;25.98;;;17.98;;
54271;SDS011;40184;53.362;5.216;2023-05-07T00:46:16;21.45;;;18.50;;
54271;SDS011;40184;53.362;5.216;2023-05-07T00:48:44;23.98;;;18.08;;
54271;SDS011;40184;53.362;5.216;2023-05-07T00:51:10;23.77;;;18.63;;
54271;SDS011;40184;53.362;5.216;2023-05-07T00:53:36;31.10;;;19.83;;
54271;SDS011;40184;53.362;5.216;2023-05-07T00:56:03;23.88;;;18.88;;
54271;SDS011;40184;53.362;5.216;2023-05-07T00:58:29;26.33;;;18.42;;
54271;SDS011;40184;53.362;5.216;2023-05-07T01:00:55;25.45;;;20.50;;
54271;SDS011;40184;53.362;5.216;2023-05-07T01:03:21;25.60;;;19.65;;
54271;SDS011;40184;53.362;5.216;2023-05-07T01:05:47;23.20;;;19.55;;
54271;SDS011;40184;53.362;5.216;2023-05-07T01:08:14;22.75;;;19.77;;
54271;SDS011;40184;53.362;5.216;2023-05-07T01:10:41;24.20;;;20.48;;
54271;SDS011;40184;53.362;5.216;2023-05-07T01:13:11;24.15;;;20.00;;
54271;SDS011;40184;53.362;5.216;2023-05-07T01:15:38;27.40;;;20.98;;
54271;SDS011;40184;53.362;5.216;2023-05-07T01:18:06;22.60;;;20.10;;
54271;SDS011;40184;53.362;5.216;2023-05-07T01:20:32;28.42;;;19.95;;
54271;SDS011;40184;53.362;5.216;2023-05-07T01:22:58;28.02;;;21.05;;
54271;SDS011;40184;53.362;5.216;2023-05-07T01:25:25;24.30;;;21.70;;
54271;SDS011;40184;53.362;5.216;2023-05-07T01:27:51;33.72;;;22.20;;
54271;SDS011;40184;53.362;5.216;2023-05-07T01:30:17;27.02;;;20.75;;
54271;SDS011;40184;53.362;5.216;2023-05-07T01:32:52;25.38;;;20.55;;
54271;SDS011;40184;53.362;5.216;2023-05-07T01:35:26;28.13;;;21.42;;
54271;SDS011;40184;53.362;5.216;2023-05-07T01:37:55;23.73;;;21.17;;
54271;SDS011;40184;53.362;5.216;2023-05-07T01:40:22;28.73;;;21.90;;
54271;SDS011;40184;53.362;5.216;2023-05-07T01:42:49;25.17;;;21.80;;
54271;SDS011;40184;53.362;5.216;2023-05-07T01:45:15;33.42;;;23.05;;
54271;SDS011;40184;53.362;5.216;2023-05-07T01:47:41;37.30;;;23.20;;
54271;SDS011;40184;53.362;5.216;2023-05-07T01:50:08;30.42;;;21.23;;
54271;SDS011;40184;53.362;5.216;2023-05-07T01:52:35;25.38;;;21.30;;
54271;SDS011;40184;53.362;5.216;2023-05-07T01:55:03;31.48;;;22.50;;
54271;SDS011;40184;53.362;5.216;2023-05-07T01:57:29;27.98;;;22.55;;
54271;SDS011;40184;53.362;5.216;2023-05-07T01:59:55;28.83;;;21.92;;
54271;SDS011;40184;53.362;5.216;2023-05-07T02:02:21;29.42;;;22.98;;
54271;SDS011;40184;53.362;5.216;2023-05-07T02:04:47;29.33;;;22.20;;
54271;SDS011;40184;53.362;5.216;2023-05-07T02:07:12;23.17;;;20.42;;
54271;SDS011;40184;53.362;5.216;2023-05-07T02:09:38;28.38;;;20.98;;
54271;SDS011;40184;53.362;5.216;2023-05-07T02:12:04;30.00;;;22.63;;
54271;SDS011;40184;53.362;5.216;2023-05-07T02:14:29;30.15;;;22.25;;
54271;SDS011;40184;53.362;5.216;2023-05-07T02:16:55;33.30;;;22.67;;
54271;SDS011;40184;53.362;5.216;2023-05-07T02:19:21;30.23;;;21.90;;
54271;SDS011;40184;53.362;5.216;2023-05-07T02:21:46;27.30;;;20.75;;
54271;SDS011;40184;53.362;5.216;2023-05-07T02:24:13;25.52;;;20.02;;
54271;SDS011;40184;53.362;5.216;2023-05-07T02:26:39;24.75;;;20.85;;
54271;SDS011;40184;53.362;5.216;2023-05-07T02:29:06;28.60;;;21.80;;
54271;SDS011;40184;53.362;5.216;2023-05-07T02:31:32;25.70;;;20.40;;
54271;SDS011;40184;53.362;5.216;2023-05-07T02:33:59;26.58;;;20.30;;
54271;SDS011;40184;53.362;5.216;2023-05-07T02:36:25;22.13;;;19.65;;
54271;SDS011;40184;53.362;5.216;2023-05-07T02:38:51;27.15;;;20.38;;
54271;SDS011;40184;53.362;5.216;2023-05-07T02:41:17;25.00;;;21.50;;
54271;SDS011;40184;53.362;5.216;2023-05-07T02:43:43;31.60;;;21.10;;
54271;SDS011;40184;53.362;5.216;2023-05-07T02:46:09;29.10;;;20.63;;
54271;SDS011;40184;53.362;5.216;2023-05-07T02:48:34;21.45;;;19.05;;
54271;SDS011;40184;53.362;5.216;2023-05-07T02:51:01;26.50;;;20.63;;
54271;SDS011;40184;53.362;5.216;2023-05-07T02:53:27;19.52;;;17.52;;
54271;SDS011;40184;53.362;5.216;2023-05-07T02:55:53;23.50;;;17.63;;
54271;SDS011;40184;53.362;5.216;2023-05-07T02:58:19;22.20;;;17.38;;
54271;SDS011;40184;53.362;5.216;2023-05-07T03:00:45;26.30;;;18.30;;
54271;SDS011;40184;53.362;5.216;2023-05-07T03:03:11;23.10;;;16.90;;
54271;SDS011;40184;53.362;5.216;2023-05-07T03:05:36;20.15;;;17.95;;
54271;SDS011;40184;53.362;5.216;2023-05-07T03:08:02;20.17;;;17.25;;
54271;SDS011;40184;53.362;5.216;2023-05-07T03:10:29;22.40;;;17.13;;
54271;SDS011;40184;53.362;5.216;2023-05-07T03:12:55;21.42;;;17.75;;
54271;SDS011;40184;53.362;5.216;2023-05-07T03:15:21;19.52;;;17.50;;
54271;SDS011;40184;53.362;5.216;2023-05-07T03:17:47;22.38;;;17.60;;
54271;SDS011;40184;53.362;5.216;2023-05-07T03:20:13;24.55;;;17.50;;
54271;SDS011;40184;53.362;5.216;2023-05-07T03:22:39;21.40;;;17.70;;
54271;SDS011;40184;53.362;5.216;2023-05-07T03:25:05;19.73;;;17.63;;
54271;SDS011;40184;53.362;5.216;2023-05-07T03:27:31;27.95;;;18.40;;
54271;SDS011;40184;53.362;5.216;2023-05-07T03:29:57;22.45;;;18.08;;
54271;SDS011;40184;53.362;5.216;2023-05-07T03:32:23;24.08;;;18.30;;
54271;SDS011;40184;53.362;5.216;2023-05-07T03:34:48;24.30;;;18.50;;
54271;SDS011;40184;53.362;5.216;2023-05-07T03:37:14;20.85;;;18.17;;
54271;SDS011;40184;53.362;5.216;2023-05-07T03:39:40;22.17;;;18.80;;
54271;SDS011;40184;53.362;5.216;2023-05-07T03:42:06;24.08;;;20.10;;
54271;SDS011;40184;53.362;5.216;2023-05-07T03:44:31;20.67;;;18.48;;
54271;SDS011;40184;53.362;5.216;2023-05-07T03:46:57;23.10;;;18.35;;
54271;SDS011;40184;53.362;5.216;2023-05-07T03:49:22;24.25;;;20.02;;
54271;SDS011;40184;53.362;5.216;2023-05-07T03:51:48;23.85;;;19.63;;
54271;SDS011;40184;53.362;5.216;2023-05-07T03:54:14;25.58;;;19.35;;
54271;SDS011;40184;53.362;5.216;2023-05-07T03:56:39;27.90;;;20.45;;
54271;SDS011;40184;53.362;5.216;2023-05-07T03:59:05;26.52;;;20.50;;
54271;SDS011;40184;53.362;5.216;2023-05-07T04:01:31;24.90;;;19.85;;
54271;SDS011;40184;53.362;5.216;2023-05-07T04:03:56;27.17;;;21.48;;
54271;SDS011;40184;53.362;5.216;2023-05-07T04:06:22;21.88;;;19.52;;
54271;SDS011;40184;53.362;5.216;2023-05-07T04:08:48;23.30;;;20.85;;
54271;SDS011;40184;53.362;5.216;2023-05-07T04:11:13;25.52;;;20.83;;
54271;SDS011;40184;53.362;5.216;2023-05-07T04:13:39;29.20;;;20.88;;
54271;SDS011;40184;53.362;5.216;2023-05-07T04:16:05;23.58;;;20.67;;
54271;SDS011;40184;53.362;5.216;2023-05-07T04:18:31;23.90;;;19.58;;
54271;SDS011;40184;53.362;5.216;2023-05-07T04:20:56;26.17;;;20.85;;
54271;SDS011;40184;53.362;5.216;2023-05-07T04:23:22;28.38;;;21.20;;
54271;SDS011;40184;53.362;5.216;2023-05-07T04:25:48;23.20;;;20.20;;
54271;SDS011;40184;53.362;5.216;2023-05-07T04:28:13;24.15;;;21.55;;
54271;SDS011;40184;53.362;5.216;2023-05-07T04:30:39;27.70;;;21.60;;
54271;SDS011;40184;53.362;5.216;2023-05-07T04:33:06;29.65;;;22.40;;
54271;SDS011;40184;53.362;5.216;2023-05-07T04:35:32;26.13;;;21.52;;
54271;SDS011;40184;53.362;5.216;2023-05-07T04:37:58;23.10;;;20.60;;
54271;SDS011;40184;53.362;5.216;2023-05-07T04:40:23;24.58;;;22.00;;
54271;SDS011;40184;53.362;5.216;2023-05-07T04:42:49;23.90;;;21.35;;
54271;SDS011;40184;53.362;5.216;2023-05-07T04:45:16;24.40;;;20.58;;
54271;SDS011;40184;53.362;5.216;2023-05-07T04:47:41;25.45;;;21.55;;
54271;SDS011;40184;53.362;5.216;2023-05-07T04:50:07;25.00;;;22.33;;
54271;SDS011;40184;53.362;5.216;2023-05-07T04:52:33;30.40;;;22.88;;
54271;SDS011;40184;53.362;5.216;2023-05-07T04:54:59;28.58;;;22.80;;
54271;SDS011;40184;53.362;5.216;2023-05-07T04:57:25;28.48;;;23.30;;
54271;SDS011;40184;53.362;5.216;2023-05-07T04:59:52;28.52;;;23.17;;
54271;SDS011;40184;53.362;5.216;2023-05-07T05:02:18;25.88;;;22.20;;
54271;SDS011;40184;53.362;5.216;2023-05-07T05:04:43;28.00;;;21.65;;
54271;SDS011;40184;53.362;5.216;2023-05-07T05:07:09;28.35;;;22.90;;
54271;SDS011;40184;53.362;5.216;2023-05-07T05:09:35;28.58;;;23.15;;
54271;SDS011;40184;53.362;5.216;2023-05-07T05:12:00;29.38;;;23.10;;
54271;SDS011;40184;53.362;5.216;2023-05-07T05:14:26;26.48;;;23.20;;
54271;SDS011;40184;53.362;5.216;2023-05-07T05:16:52;27.25;;;22.73;;
54271;SDS011;40184;53.362;5.216;2023-05-07T05:19:17;26.83;;;23.13;;
54271;SDS011;40184;53.362;5.216;2023-05-07T05:21:43;28.63;;;24.13;;
54271;SDS011;40184;53.362;5.216;2023-05-07T05:24:09;26.15;;;23.35;;
54271;SDS011;40184;53.362;5.216;2023-05-07T05:26:34;29.00;;;22.02;;
54271;SDS011;40184;53.362;5.216;2023-05-07T05:29:00;27.77;;;22.30;;
54271;SDS011;40184;53.362;5.216;2023-05-07T05:31:26;26.35;;;22.98;;
54271;SDS011;40184;53.362;5.216;2023-05-07T05:33:51;27.00;;;22.98;;
54271;SDS011;40184;53.362;5.216;2023-05-07T05:36:17;28.13;;;23.42;;
54271;SDS011;40184;53.362;5.216;2023-05-07T05:38:43;26.95;;;23.80;;
54271;SDS011;40184;53.362;5.216;2023-05-07T05:41:09;32.00;;;24.13;;
54271;SDS011;40184;53.362;5.216;2023-05-07T05:43:35;30.67;;;23.73;;
54271;SDS011;40184;53.362;5.216;2023-05-07T05:46:01;34.65;;;25.58;;
54271;SDS011;40184;53.362;5.216;2023-05-07T05:48:27;33.35;;;24.98;;
54271;SDS011;40184;53.362;5.216;2023-05-07T05:50:54;27.70;;;24.20;;
54271;SDS011;40184;53.362;5.216;2023-05-07T05:53:19;28.73;;;24.63;;
54271;SDS011;40184;53.362;5.216;2023-05-07T05:55:45;33.70;;;26.50;;
54271;SDS011;40184;53.362;5.216;2023-05-07T05:58:11;30.42;;;25.67;;
54271;SDS011;40184;53.362;5.216;2023-05-07T06:00:37;29.70;;;26.42;;
54271;SDS011;40184;53.362;5.216;2023-05-07T06:03:02;35.75;;;26.75;;
54271;SDS011;40184;53.362;5.216;2023-05-07T06:05:28;34.47;;;26.42;;
54271;SDS011;40184;53.362;5.216;2023-05-07T06:07:54;34.35;;;27.23;;
54271;SDS011;40184;53.362;5.216;2023-05-07T06:10:19;33.50;;;27.40;;
54271;SDS011;40184;53.362;5.216;2023-05-07T06:12:45;37.92;;;27.25;;
54271;SDS011;40184;53.362;5.216;2023-05-07T06:15:11;30.48;;;26.10;;
54271;SDS011;40184;53.362;5.216;2023-05-07T06:17:36;29.05;;;25.85;;
54271;SDS011;40184;53.362;5.216;2023-05-07T06:20:02;34.20;;;27.55;;
54271;SDS011;40184;53.362;5.216;2023-05-07T06:22:28;32.60;;;26.75;;
54271;SDS011;40184;53.362;5.216;2023-05-07T06:24:54;33.75;;;26.35;;
54271;SDS011;40184;53.362;5.216;2023-05-07T06:27:19;30.45;;;25.83;;
54271;SDS011;40184;53.362;5.216;2023-05-07T06:29:47;32.00;;;27.65;;
54271;SDS011;40184;53.362;5.216;2023-05-07T06:32:13;34.13;;;27.00;;
54271;SDS011;40184;53.362;5.216;2023-05-07T06:34:39;32.78;;;28.80;;
54271;SDS011;40184;53.362;5.216;2023-05-07T06:37:06;38.35;;;26.85;;
54271;SDS011;40184;53.362;5.216;2023-05-07T06:39:32;34.58;;;27.83;;
54271;SDS011;40184;53.362;5.216;2023-05-07T06:41:58;36.85;;;28.13;;
54271;SDS011;40184;53.362;5.216;2023-05-07T06:44:24;40.63;;;29.95;;
54271;SDS011;40184;53.362;5.216;2023-05-07T06:46:50;36.17;;;27.55;;
54271;SDS011;40184;53.362;5.216;2023-05-07T06:49:16;35.67;;;28.77;;
54271;SDS011;40184;53.362;5.216;2023-05-07T06:51:42;36.15;;;29.80;;
54271;SDS011;40184;53.362;5.216;2023-05-07T06:54:07;44.03;;;30.63;;
54271;SDS011;40184;53.362;5.216;2023-05-07T06:56:33;39.58;;;29.95;;
54271;SDS011;40184;53.362;5.216;2023-05-07T06:58:59;36.92;;;30.55;;
54271;SDS011;40184;53.362;5.216;2023-05-07T07:01:25;37.38;;;30.40;;
54271;SDS011;40184;53.362;5.216;2023-05-07T07:03:51;36.45;;;29.92;;
54271;SDS011;40184;53.362;5.216;2023-05-07T07:06:17;34.85;;;27.63;;
54271;SDS011;40184;53.362;5.216;2023-05-07T07:08:43;44.60;;;32.03;;
54271;SDS011;40184;53.362;5.216;2023-05-07T07:11:09;39.15;;;30.15;;
54271;SDS011;40184;53.362;5.216;2023-05-07T07:13:35;41.45;;;30.67;;
54271;SDS011;40184;53.362;5.216;2023-05-07T07:16:01;35.88;;;30.77;;
54271;SDS011;40184;53.362;5.216;2023-05-07T07:18:27;37.03;;;28.23;;
54271;SDS011;40184;53.362;5.216;2023-05-07T07:20:52;38.17;;;30.00;;
54271;SDS011;40184;53.362;5.216;2023-05-07T07:23:18;38.35;;;30.08;;
54271;SDS011;40184;53.362;5.216;2023-05-07T07:25:44;35.97;;;28.73;;
54271;SDS011;40184;53.362;5.216;2023-05-07T07:28:10;34.75;;;28.20;;
54271;SDS011;40184;53.362;5.216;2023-05-07T07:30:36;35.20;;;29.85;;
54271;SDS011;40184;53.362;5.216;2023-05-07T07:33:02;36.00;;;29.02;;
54271;SDS011;40184;53.362;5.216;2023-05-07T07:35:29;35.17;;;29.15;;
54271;SDS011;40184;53.362;5.216;2023-05-07T07:37:55;37.53;;;30.08;;
54271;SDS011;40184;53.362;5.216;2023-05-07T07:40:21;40.42;;;29.50;;
54271;SDS011;40184;53.362;5.216;2023-05-07T07:42:46;32.22;;;27.73;;
54271;SDS011;40184;53.362;5.216;2023-05-07T07:45:12;40.38;;;28.90;;
54271;SDS011;40184;53.362;5.216;2023-05-07T07:47:38;34.05;;;28.15;;
54271;SDS011;40184;53.362;5.216;2023-05-07T07:50:05;36.28;;;29.63;;
54271;SDS011;40184;53.362;5.216;2023-05-07T07:52:31;34.90;;;27.80;;
54271;SDS011;40184;53.362;5.216;2023-05-07T07:54:57;38.85;;;29.02;;
54271;SDS011;40184;53.362;5.216;2023-05-07T07:57:22;37.22;;;29.17;;
54271;SDS011;40184;53.362;5.216;2023-05-07T07:59:48;34.70;;;27.85;;
54271;SDS011;40184;53.362;5.216;2023-05-07T08:02:15;33.58;;;27.35;;
54271;SDS011;40184;53.362;5.216;2023-05-07T08:04:41;35.55;;;28.35;;
54271;SDS011;40184;53.362;5.216;2023-05-07T08:07:08;34.67;;;27.92;;
54271;SDS011;40184;53.362;5.216;2023-05-07T08:09:34;38.17;;;30.15;;
54271;SDS011;40184;53.362;5.216;2023-05-07T08:12:01;34.10;;;28.13;;
54271;SDS011;40184;53.362;5.216;2023-05-07T08:14:26;35.20;;;28.67;;
54271;SDS011;40184;53.362;5.216;2023-05-07T08:16:53;36.85;;;28.55;;
54271;SDS011;40184;53.362;5.216;2023-05-07T08:19:19;33.90;;;26.75;;
54271;SDS011;40184;53.362;5.216;2023-05-07T08:21:46;36.10;;;28.35;;
54271;SDS011;40184;53.362;5.216;2023-05-07T08:24:13;33.60;;;26.67;;
54271;SDS011;40184;53.362;5.216;2023-05-07T08:26:40;33.08;;;26.85;;
54271;SDS011;40184;53.362;5.216;2023-05-07T08:29:06;35.05;;;26.55;;
54271;SDS011;40184;53.362;5.216;2023-05-07T08:31:32;31.33;;;27.42;;
54271;SDS011;40184;53.362;5.216;2023-05-07T08:33:58;34.17;;;27.38;;
54271;SDS011;40184;53.362;5.216;2023-05-07T08:36:24;31.15;;;27.08;;
54271;SDS011;40184;53.362;5.216;2023-05-07T08:38:50;32.63;;;26.48;;
54271;SDS011;40184;53.362;5.216;2023-05-07T08:41:17;29.42;;;26.35;;
54271;SDS011;40184;53.362;5.216;2023-05-07T08:43:42;31.88;;;26.75;;
54271;SDS011;40184;53.362;5.216;2023-05-07T08:46:16;30.42;;;25.92;;
54271;SDS011;40184;53.362;5.216;2023-05-07T08:48:44;35.72;;;28.10;;
54271;SDS011;40184;53.362;5.216;2023-05-07T08:51:13;31.35;;;26.95;;
54271;SDS011;40184;53.362;5.216;2023-05-07T08:53:41;30.17;;;26.92;;
54271;SDS011;40184;53.362;5.216;2023-05-07T08:56:08;29.15;;;25.63;;
54271;SDS011;40184;53.362;5.216;2023-05-07T08:58:34;29.95;;;26.45;;
54271;SDS011;40184;53.362;5.216;2023-05-07T09:01:07;30.83;;;25.50;;
54271;SDS011;40184;53.362;5.216;2023-05-07T09:03:34;29.27;;;24.77;;
54271;SDS011;40184;53.362;5.216;2023-05-07T09:06:02;31.48;;;25.52;;
54271;SDS011;40184;53.362;5.216;2023-05-07T09:08:28;31.27;;;25.77;;
54271;SDS011;40184;53.362;5.216;2023-05-07T09:10:53;33.33;;;25.58;;
54271;SDS011;40184;53.362;5.216;2023-05-07T09:13:19;28.70;;;24.60;;
54271;SDS011;40184;53.362;5.216;2023-05-07T09:15:45;30.67;;;26.08;;
54271;SDS011;40184;53.362;5.216;2023-05-07T09:18:14;30.15;;;24.48;;
54271;SDS011;40184;53.362;5.216;2023-05-07T09:20:41;28.70;;;23.58;;
54271;SDS011;40184;53.362;5.216;2023-05-07T09:23:07;26.30;;;23.25;;
54271;SDS011;40184;53.362;5.216;2023-05-07T09:25:34;27.08;;;24.17;;
54271;SDS011;40184;53.362;5.216;2023-05-07T09:28:00;30.73;;;24.75;;
54271;SDS011;40184;53.362;5.216;2023-05-07T09:30:30;28.90;;;23.60;;
54271;SDS011;40184;53.362;5.216;2023-05-07T09:33:00;28.48;;;23.05;;
54271;SDS011;40184;53.362;5.216;2023-05-07T09:35:27;27.10;;;24.23;;
54271;SDS011;40184;53.362;5.216;2023-05-07T09:37:53;24.35;;;21.75;;
54271;SDS011;40184;53.362;5.216;2023-05-07T09:40:25;26.55;;;23.65;;
54271;SDS011;40184;53.362;5.216;2023-05-07T09:42:52;24.33;;;21.83;;
54271;SDS011;40184;53.362;5.216;2023-05-07T09:45:22;25.92;;;22.65;;
54271;SDS011;40184;53.362;5.216;2023-05-07T09:47:49;34.97;;;22.77;;
54271;SDS011;40184;53.362;5.216;2023-05-07T09:50:18;26.13;;;23.13;;
54271;SDS011;40184;53.362;5.216;2023-05-07T09:52:46;24.15;;;21.65;;
54271;SDS011;40184;53.362;5.216;2023-05-07T09:55:13;24.95;;;21.67;;
54271;SDS011;40184;53.362;5.216;2023-05-07T09:57:40;24.15;;;21.55;;
54271;SDS011;40184;53.362;5.216;2023-05-07T10:00:07;23.85;;;21.30;;
54271;SDS011;40184;53.362;5.216;2023-05-07T10:02:35;24.98;;;22.27;;
54271;SDS011;40184;53.362;5.216;2023-05-07T10:05:02;23.83;;;20.17;;
54271;SDS011;40184;53.362;5.216;2023-05-07T10:07:28;26.48;;;22.17;;
54271;SDS011;40184;53.362;5.216;2023-05-07T10:09:55;25.52;;;20.90;;
54271;SDS011;40184;53.362;5.216;2023-05-07T10:12:22;23.35;;;20.85;;
54271;SDS011;40184;53.362;5.216;2023-05-07T10:14:49;24.48;;;21.17;;
54271;SDS011;40184;53.362;5.216;2023-05-07T10:17:17;23.13;;;20.67;;
54271;SDS011;40184;53.362;5.216;2023-05-07T10:19:45;25.48;;;20.75;;
54271;SDS011;40184;53.362;5.216;2023-05-07T10:22:11;22.05;;;19.15;;
54271;SDS011;40184;53.362;5.216;2023-05-07T10:24:40;26.15;;;19.67;;
54271;SDS011;40184;53.362;5.216;2023-05-07T10:27:09;25.88;;;21.75;;
54271;SDS011;40184;53.362;5.216;2023-05-07T10:30:00;25.95;;;21.52;;
54271;SDS011;40184;53.362;5.216;2023-05-07T10:35:09;23.33;;;19.77;;
54271;SDS011;40184;53.362;5.216;2023-05-07T10:37:39;23.38;;;21.08;;
54271;SDS011;40184;53.362;5.216;2023-05-07T10:40:05;24.38;;;20.27;;
54271;SDS011;40184;53.362;5.216;2023-05-07T10:42:32;26.20;;;21.05;;
54271;SDS011;40184;53.362;5.216;2023-05-07T10:44:57;24.98;;;20.98;;
54271;SDS011;40184;53.362;5.216;2023-05-07T10:47:36;22.58;;;20.25;;
54271;SDS011;40184;53.362;5.216;2023-05-07T10:50:35;27.17;;;19.63;;
54271;SDS011;40184;53.362;5.216;2023-05-07T10:55:47;23.92;;;21.38;;
54271;SDS011;40184;53.362;5.216;2023-05-07T11:00:59;24.90;;;22.25;;
54271;SDS011;40184;53.362;5.216;2023-05-07T11:03:26;24.92;;;21.60;;
54271;SDS011;40184;53.362;5.216;2023-05-07T11:06:09;22.25;;;19.80;;
54271;SDS011;40184;53.362;5.216;2023-05-07T11:17:07;25.02;;;21.38;;
54271;SDS011;40184;53.362;5.216;2023-05-07T11:19:49;23.75;;;21.33;;
54271;SDS011;40184;53.362;5.216;2023-05-07T11:25:00;23.05;;;20.02;;
54271;SDS011;40184;53.362;5.216;2023-05-07T11:27:26;22.40;;;20.13;;
54271;SDS011;40184;53.362;5.216;2023-05-07T11:29:52;21.60;;;19.50;;
54271;SDS011;40184;53.362;5.216;2023-05-07T11:32:24;25.17;;;21.45;;
54271;SDS011;40184;53.362;5.216;2023-05-07T11:34:55;21.15;;;18.98;;
54271;SDS011;40184;53.362;5.216;2023-05-07T11:37:22;21.20;;;18.70;;
54271;SDS011;40184;53.362;5.216;2023-05-07T11:39:49;22.23;;;19.95;;
54271;SDS011;40184;53.362;5.216;2023-05-07T11:42:29;22.08;;;19.67;;
54271;SDS011;40184;53.362;5.216;2023-05-07T11:44:56;22.55;;;20.23;;
54271;SDS011;40184;53.362;5.216;2023-05-07T11:47:23;27.65;;;20.80;;
54271;SDS011;40184;53.362;5.216;2023-05-07T11:49:51;21.23;;;19.30;;
54271;SDS011;40184;53.362;5.216;2023-05-07T11:52:18;21.92;;;19.75;;
54271;SDS011;40184;53.362;5.216;2023-05-07T11:54:48;22.80;;;20.45;;
54271;SDS011;40184;53.362;5.216;2023-05-07T11:57:18;23.55;;;20.88;;
54271;SDS011;40184;53.362;5.216;2023-05-07T11:59:45;22.65;;;20.40;;
54271;SDS011;40184;53.362;5.216;2023-05-07T12:02:15;27.38;;;20.27;;
54271;SDS011;40184;53.362;5.216;2023-05-07T12:04:42;22.35;;;20.13;;
54271;SDS011;40184;53.362;5.216;2023-05-07T12:07:11;20.88;;;18.88;;
54271;SDS011;40184;53.362;5.216;2023-05-07T12:09:38;22.40;;;20.08;;
54271;SDS011;40184;53.362;5.216;2023-05-07T12:12:05;21.70;;;19.48;;
54271;SDS011;40184;53.362;5.216;2023-05-07T12:14:31;22.52;;;20.05;;
54271;SDS011;40184;53.362;5.216;2023-05-07T12:16:57;21.35;;;19.25;;
54271;SDS011;40184;53.362;5.216;2023-05-07T12:19:28;21.63;;;19.52;;
54271;SDS011;40184;53.362;5.216;2023-05-07T12:21:54;24.90;;;20.80;;
54271;SDS011;40184;53.362;5.216;2023-05-07T12:24:21;22.58;;;20.15;;
54271;SDS011;40184;53.362;5.216;2023-05-07T12:26:47;22.70;;;20.08;;
54271;SDS011;40184;53.362;5.216;2023-05-07T12:29:15;24.38;;;21.27;;
54271;SDS011;40184;53.362;5.216;2023-05-07T12:31:41;23.58;;;20.30;;
54271;SDS011;40184;53.362;5.216;2023-05-07T12:34:07;22.60;;;19.35;;
54271;SDS011;40184;53.362;5.216;2023-05-07T12:36:41;24.17;;;20.83;;
54271;SDS011;40184;53.362;5.216;2023-05-07T12:39:07;22.45;;;20.25;;
54271;SDS011;40184;53.362;5.216;2023-05-07T12:41:58;22.20;;;19.80;;
54271;SDS011;40184;53.362;5.216;2023-05-07T12:44:24;22.23;;;19.80;;
54271;SDS011;40184;53.362;5.216;2023-05-07T12:46:53;22.55;;;20.15;;
54271;SDS011;40184;53.362;5.216;2023-05-07T12:49:19;21.55;;;19.33;;
54271;SDS011;40184;53.362;5.216;2023-05-07T12:51:46;23.35;;;20.67;;
54271;SDS011;40184;53.362;5.216;2023-05-07T12:54:13;21.48;;;19.38;;
54271;SDS011;40184;53.362;5.216;2023-05-07T12:56:59;25.10;;;20.95;;
54271;SDS011;40184;53.362;5.216;2023-05-07T12:59:39;24.45;;;21.88;;
54271;SDS011;40184;53.362;5.216;2023-05-07T13:02:06;26.05;;;21.75;;
54271;SDS011;40184;53.362;5.216;2023-05-07T13:04:32;23.25;;;21.05;;
54271;SDS011;40184;53.362;5.216;2023-05-07T13:06:59;25.23;;;21.85;;
54271;SDS011;40184;53.362;5.216;2023-05-07T13:09:25;23.42;;;21.13;;
54271;SDS011;40184;53.362;5.216;2023-05-07T13:11:51;23.30;;;20.83;;
54271;SDS011;40184;53.362;5.216;2023-05-07T13:14:17;23.45;;;21.13;;
54271;SDS011;40184;53.362;5.216;2023-05-07T13:16:45;22.88;;;20.45;;
54271;SDS011;40184;53.362;5.216;2023-05-07T13:19:10;27.45;;;21.13;;
54271;SDS011;40184;53.362;5.216;2023-05-07T13:21:36;23.70;;;20.33;;
54271;SDS011;40184;53.362;5.216;2023-05-07T13:24:02;23.90;;;21.50;;
54271;SDS011;40184;53.362;5.216;2023-05-07T13:26:29;23.25;;;20.92;;
54271;SDS011;40184;53.362;5.216;2023-05-07T13:28:56;23.02;;;20.77;;
54271;SDS011;40184;53.362;5.216;2023-05-07T13:31:22;25.80;;;21.40;;
54271;SDS011;40184;53.362;5.216;2023-05-07T13:33:47;23.45;;;21.17;;
54271;SDS011;40184;53.362;5.216;2023-05-07T13:36:13;22.98;;;20.67;;
54271;SDS011;40184;53.362;5.216;2023-05-07T13:38:39;23.05;;;19.63;;
54271;SDS011;40184;53.362;5.216;2023-05-07T13:41:05;27.23;;;20.23;;
54271;SDS011;40184;53.362;5.216;2023-05-07T13:43:31;24.65;;;22.00;;
54271;SDS011;40184;53.362;5.216;2023-05-07T13:45:58;22.67;;;20.35;;
54271;SDS011;40184;53.362;5.216;2023-05-07T13:48:24;22.13;;;18.42;;
54271;SDS011;40184;53.362;5.216;2023-05-07T13:50:50;21.70;;;19.50;;
54271;SDS011;40184;53.362;5.216;2023-05-07T13:53:16;21.10;;;18.98;;
54271;SDS011;40184;53.362;5.216;2023-05-07T13:55:43;21.23;;;18.80;;
54271;SDS011;40184;53.362;5.216;2023-05-07T13:58:09;22.48;;;19.90;;
54271;SDS011;40184;53.362;5.216;2023-05-07T14:00:35;23.10;;;19.27;;
54271;SDS011;40184;53.362;5.216;2023-05-07T14:03:01;20.90;;;18.85;;
54271;SDS011;40184;53.362;5.216;2023-05-07T14:05:26;21.08;;;18.35;;
54271;SDS011;40184;53.362;5.216;2023-05-07T14:07:53;22.02;;;19.38;;
54271;SDS011;40184;53.362;5.216;2023-05-07T14:10:21;23.75;;;18.30;;
54271;SDS011;40184;53.362;5.216;2023-05-07T14:12:47;21.05;;;18.83;;
54271;SDS011;40184;53.362;5.216;2023-05-07T14:15:13;18.80;;;16.85;;
54271;SDS011;40184;53.362;5.216;2023-05-07T14:17:39;20.10;;;18.08;;
54271;SDS011;40184;53.362;5.216;2023-05-07T14:20:05;18.52;;;16.83;;
54271;SDS011;40184;53.362;5.216;2023-05-07T14:22:32;20.10;;;16.60;;
54271;SDS011;40184;53.362;5.216;2023-05-07T14:24:57;19.02;;;17.10;;
54271;SDS011;40184;53.362;5.216;2023-05-07T14:27:23;19.02;;;17.25;;
54271;SDS011;40184;53.362;5.216;2023-05-07T14:29:49;17.95;;;16.30;;
54271;SDS011;40184;53.362;5.216;2023-05-07T14:32:19;18.77;;;16.40;;
54271;SDS011;40184;53.362;5.216;2023-05-07T14:34:45;23.10;;;17.73;;
54271;SDS011;40184;53.362;5.216;2023-05-07T14:37:11;19.00;;;15.75;;